sensor_id;sensor_type;location;lat;lon;timestamp;P1;durP1;ratioP1;P2;durP2;ratioP2
2912;SDS011;1466;48.778;9.166;2023-06-24T00:00:29;13.67;;;7.23;;
2912;SDS011;1466;48.778;9.166;2023-06-24T00:02:55;13.83;;;8.07;;
2912;SDS011;1466;48.778;9.166;2023-06-24T00:05:23;19.77;;;8.67;;
2912;SDS011;1466;48.778;9.166;2023-06-24T00:07:48;19.47;;;8.90;;
2912;SDS011;1466;48.778;9.166;2023-06-24T00:10:14;12.77;;;7.63;;
2912;SDS011;1466;48.778;9.166;2023-06-24T00:12:40;20.87;;;8.70;;
2912;SDS011;1466;48.778;9.166;2023-06-24T00:15:06;33.33;;;11.00;;
2912;SDS011;1466;48.778;9.166;2023-06-24T00:17:35;15.20;;;8.87;;
2912;SDS011;1466;48.778;9.166;2023-06-24T00:20:01;19.23;;;8.67;;
2912;SDS011;1466;48.778;9.166;2023-06-24T00:22:29;16.43;;;8.37;;
2912;SDS011;1466;48.778;9.166;2023-06-24T00:24:55;20.80;;;8.60;;
2912;SDS011;1466;48.778;9.166;2023-06-24T00:27:21;14.37;;;7.23;;
2912;SDS011;1466;48.778;9.166;2023-06-24T00:29:47;27.37;;;9.90;;
2912;SDS011;1466;48.778;9.166;2023-06-24T00:32:12;22.37;;;9.60;;
2912;SDS011;1466;48.778;9.166;2023-06-24T00:34:38;14.80;;;8.00;;
2912;SDS011;1466;48.778;9.166;2023-06-24T00:37:08;23.40;;;8.87;;
2912;SDS011;1466;48.778;9.166;2023-06-24T00:39:34;14.20;;;8.20;;
2912;SDS011;1466;48.778;9.166;2023-06-24T00:42:00;15.83;;;7.70;;
2912;SDS011;1466;48.778;9.166;2023-06-24T00:44:26;22.43;;;8.33;;
2912;SDS011;1466;48.778;9.166;2023-06-24T00:46:51;18.00;;;8.20;;
2912;SDS011;1466;48.778;9.166;2023-06-24T00:49:17;16.30;;;7.97;;
2912;SDS011;1466;48.778;9.166;2023-06-24T00:51:43;12.63;;;7.37;;
2912;SDS011;1466;48.778;9.166;2023-06-24T00:54:15;19.07;;;8.37;;
2912;SDS011;1466;48.778;9.166;2023-06-24T00:56:41;19.20;;;8.63;;
2912;SDS011;1466;48.778;9.166;2023-06-24T00:59:07;16.13;;;8.20;;
2912;SDS011;1466;48.778;9.166;2023-06-24T01:01:36;16.90;;;7.90;;
2912;SDS011;1466;48.778;9.166;2023-06-24T01:04:02;24.93;;;10.33;;
2912;SDS011;1466;48.778;9.166;2023-06-24T01:06:29;17.60;;;8.97;;
2912;SDS011;1466;48.778;9.166;2023-06-24T01:08:58;17.53;;;8.70;;
2912;SDS011;1466;48.778;9.166;2023-06-24T01:11:28;24.40;;;9.80;;
2912;SDS011;1466;48.778;9.166;2023-06-24T01:13:55;23.23;;;9.40;;
2912;SDS011;1466;48.778;9.166;2023-06-24T01:19:04;17.67;;;8.43;;
2912;SDS011;1466;48.778;9.166;2023-06-24T01:22:08;15.20;;;8.10;;
2912;SDS011;1466;48.778;9.166;2023-06-24T01:24:51;16.50;;;7.97;;
2912;SDS011;1466;48.778;9.166;2023-06-24T01:30:41;19.53;;;8.90;;
2912;SDS011;1466;48.778;9.166;2023-06-24T01:33:21;15.03;;;7.53;;
2912;SDS011;1466;48.778;9.166;2023-06-24T01:35:50;31.37;;;10.50;;
2912;SDS011;1466;48.778;9.166;2023-06-24T01:38:22;12.07;;;7.33;;
2912;SDS011;1466;48.778;9.166;2023-06-24T01:40:57;15.07;;;8.27;;
2912;SDS011;1466;48.778;9.166;2023-06-24T01:43:25;20.23;;;8.37;;
2912;SDS011;1466;48.778;9.166;2023-06-24T01:45:51;19.90;;;8.73;;
2912;SDS011;1466;48.778;9.166;2023-06-24T01:48:23;18.60;;;7.90;;
2912;SDS011;1466;48.778;9.166;2023-06-24T01:50:57;22.20;;;8.70;;
2912;SDS011;1466;48.778;9.166;2023-06-24T01:53:26;17.33;;;7.83;;
2912;SDS011;1466;48.778;9.166;2023-06-24T01:55:54;29.43;;;9.50;;
2912;SDS011;1466;48.778;9.166;2023-06-24T01:58:22;17.73;;;8.33;;
2912;SDS011;1466;48.778;9.166;2023-06-24T02:00:48;20.13;;;8.60;;
2912;SDS011;1466;48.778;9.166;2023-06-24T02:03:15;15.73;;;7.83;;
2912;SDS011;1466;48.778;9.166;2023-06-24T02:05:41;12.43;;;7.90;;
2912;SDS011;1466;48.778;9.166;2023-06-24T02:08:08;14.63;;;7.60;;
2912;SDS011;1466;48.778;9.166;2023-06-24T02:10:36;20.60;;;8.63;;
2912;SDS011;1466;48.778;9.166;2023-06-24T02:13:03;22.20;;;8.63;;
2912;SDS011;1466;48.778;9.166;2023-06-24T02:15:30;21.90;;;9.00;;
2912;SDS011;1466;48.778;9.166;2023-06-24T02:17:57;20.33;;;9.40;;
2912;SDS011;1466;48.778;9.166;2023-06-24T02:20:27;16.87;;;7.93;;
2912;SDS011;1466;48.778;9.166;2023-06-24T02:22:54;17.27;;;7.90;;
2912;SDS011;1466;48.778;9.166;2023-06-24T02:25:21;25.40;;;9.20;;
2912;SDS011;1466;48.778;9.166;2023-06-24T02:27:49;18.37;;;9.53;;
2912;SDS011;1466;48.778;9.166;2023-06-24T02:30:16;23.63;;;9.23;;
2912;SDS011;1466;48.778;9.166;2023-06-24T02:32:41;14.90;;;8.20;;
2912;SDS011;1466;48.778;9.166;2023-06-24T02:35:07;18.53;;;8.60;;
2912;SDS011;1466;48.778;9.166;2023-06-24T02:37:33;21.77;;;9.63;;
2912;SDS011;1466;48.778;9.166;2023-06-24T02:39:59;21.00;;;9.67;;
2912;SDS011;1466;48.778;9.166;2023-06-24T02:42:26;16.37;;;8.23;;
2912;SDS011;1466;48.778;9.166;2023-06-24T02:44:52;23.63;;;10.70;;
2912;SDS011;1466;48.778;9.166;2023-06-24T02:47:19;23.80;;;10.13;;
2912;SDS011;1466;48.778;9.166;2023-06-24T02:49:45;21.80;;;9.90;;
2912;SDS011;1466;48.778;9.166;2023-06-24T02:52:13;21.17;;;9.33;;
2912;SDS011;1466;48.778;9.166;2023-06-24T02:54:39;19.83;;;10.33;;
2912;SDS011;1466;48.778;9.166;2023-06-24T02:57:06;19.53;;;9.33;;
2912;SDS011;1466;48.778;9.166;2023-06-24T02:59:33;13.53;;;8.00;;
2912;SDS011;1466;48.778;9.166;2023-06-24T03:01:59;18.23;;;9.10;;
2912;SDS011;1466;48.778;9.166;2023-06-24T03:04:25;18.87;;;9.23;;
2912;SDS011;1466;48.778;9.166;2023-06-24T03:06:51;21.30;;;9.93;;
2912;SDS011;1466;48.778;9.166;2023-06-24T03:09:17;21.93;;;9.63;;
2912;SDS011;1466;48.778;9.166;2023-06-24T03:11:43;22.93;;;9.70;;
2912;SDS011;1466;48.778;9.166;2023-06-24T03:14:10;19.17;;;9.30;;
2912;SDS011;1466;48.778;9.166;2023-06-24T03:16:36;22.90;;;9.20;;
2912;SDS011;1466;48.778;9.166;2023-06-24T03:19:03;14.20;;;8.23;;
2912;SDS011;1466;48.778;9.166;2023-06-24T03:21:29;17.90;;;9.10;;
2912;SDS011;1466;48.778;9.166;2023-06-24T03:23:55;19.20;;;8.97;;
2912;SDS011;1466;48.778;9.166;2023-06-24T03:26:21;19.70;;;9.27;;
2912;SDS011;1466;48.778;9.166;2023-06-24T03:28:47;19.50;;;8.70;;
2912;SDS011;1466;48.778;9.166;2023-06-24T03:31:13;26.83;;;9.80;;
2912;SDS011;1466;48.778;9.166;2023-06-24T03:33:40;17.17;;;8.00;;
2912;SDS011;1466;48.778;9.166;2023-06-24T03:36:09;18.57;;;8.77;;
2912;SDS011;1466;48.778;9.166;2023-06-24T03:38:35;20.47;;;9.20;;
2912;SDS011;1466;48.778;9.166;2023-06-24T03:41:01;39.83;;;10.67;;
2912;SDS011;1466;48.778;9.166;2023-06-24T03:43:27;18.73;;;9.97;;
2912;SDS011;1466;48.778;9.166;2023-06-24T03:45:52;15.53;;;8.23;;
2912;SDS011;1466;48.778;9.166;2023-06-24T03:48:18;19.30;;;9.10;;
2912;SDS011;1466;48.778;9.166;2023-06-24T03:50:44;13.77;;;7.83;;
2912;SDS011;1466;48.778;9.166;2023-06-24T03:53:09;17.10;;;8.10;;
2912;SDS011;1466;48.778;9.166;2023-06-24T03:55:35;23.40;;;9.30;;
2912;SDS011;1466;48.778;9.166;2023-06-24T03:58:00;23.13;;;9.40;;
2912;SDS011;1466;48.778;9.166;2023-06-24T04:00:26;18.23;;;8.27;;
2912;SDS011;1466;48.778;9.166;2023-06-24T04:02:51;17.07;;;8.10;;
2912;SDS011;1466;48.778;9.166;2023-06-24T04:05:18;28.03;;;8.33;;
2912;SDS011;1466;48.778;9.166;2023-06-24T04:07:44;23.90;;;9.37;;
2912;SDS011;1466;48.778;9.166;2023-06-24T04:10:12;24.77;;;9.33;;
2912;SDS011;1466;48.778;9.166;2023-06-24T04:12:38;14.07;;;7.90;;
2912;SDS011;1466;48.778;9.166;2023-06-24T04:15:03;17.83;;;8.50;;
2912;SDS011;1466;48.778;9.166;2023-06-24T04:17:30;16.60;;;8.00;;
2912;SDS011;1466;48.778;9.166;2023-06-24T04:19:56;16.13;;;8.17;;
2912;SDS011;1466;48.778;9.166;2023-06-24T04:22:22;13.37;;;7.27;;
2912;SDS011;1466;48.778;9.166;2023-06-24T04:24:48;18.83;;;9.37;;
2912;SDS011;1466;48.778;9.166;2023-06-24T04:27:13;14.00;;;7.70;;
2912;SDS011;1466;48.778;9.166;2023-06-24T04:29:39;21.40;;;8.80;;
2912;SDS011;1466;48.778;9.166;2023-06-24T04:32:05;20.10;;;8.90;;
2912;SDS011;1466;48.778;9.166;2023-06-24T04:34:30;20.77;;;8.90;;
2912;SDS011;1466;48.778;9.166;2023-06-24T04:36:57;23.87;;;9.80;;
2912;SDS011;1466;48.778;9.166;2023-06-24T04:39:23;16.57;;;8.53;;
2912;SDS011;1466;48.778;9.166;2023-06-24T04:41:48;14.30;;;8.40;;
2912;SDS011;1466;48.778;9.166;2023-06-24T04:44:14;18.70;;;9.00;;
2912;SDS011;1466;48.778;9.166;2023-06-24T04:46:39;30.00;;;10.40;;
2912;SDS011;1466;48.778;9.166;2023-06-24T04:49:05;20.83;;;8.63;;
2912;SDS011;1466;48.778;9.166;2023-06-24T04:51:31;18.40;;;8.47;;
2912;SDS011;1466;48.778;9.166;2023-06-24T04:53:57;19.03;;;8.80;;
2912;SDS011;1466;48.778;9.166;2023-06-24T04:56:22;17.47;;;8.43;;
2912;SDS011;1466;48.778;9.166;2023-06-24T04:58:48;14.50;;;7.80;;
2912;SDS011;1466;48.778;9.166;2023-06-24T05:01:14;19.00;;;8.87;;
2912;SDS011;1466;48.778;9.166;2023-06-24T05:03:39;17.33;;;8.80;;
2912;SDS011;1466;48.778;9.166;2023-06-24T05:06:05;19.10;;;9.33;;
2912;SDS011;1466;48.778;9.166;2023-06-24T05:08:30;15.50;;;8.53;;
2912;SDS011;1466;48.778;9.166;2023-06-24T05:10:56;18.23;;;9.27;;
2912;SDS011;1466;48.778;9.166;2023-06-24T05:13:21;13.10;;;8.17;;
2912;SDS011;1466;48.778;9.166;2023-06-24T05:15:48;16.30;;;8.23;;
2912;SDS011;1466;48.778;9.166;2023-06-24T05:18:13;18.93;;;8.93;;
2912;SDS011;1466;48.778;9.166;2023-06-24T05:20:39;15.30;;;8.30;;
2912;SDS011;1466;48.778;9.166;2023-06-24T05:23:04;26.77;;;10.10;;
2912;SDS011;1466;48.778;9.166;2023-06-24T05:25:30;15.33;;;8.30;;
2912;SDS011;1466;48.778;9.166;2023-06-24T05:27:55;26.93;;;10.23;;
2912;SDS011;1466;48.778;9.166;2023-06-24T05:30:21;11.53;;;7.67;;
2912;SDS011;1466;48.778;9.166;2023-06-24T05:32:47;17.30;;;9.27;;
2912;SDS011;1466;48.778;9.166;2023-06-24T05:35:13;15.87;;;8.20;;
2912;SDS011;1466;48.778;9.166;2023-06-24T05:37:38;14.60;;;7.57;;
2912;SDS011;1466;48.778;9.166;2023-06-24T05:40:04;21.97;;;9.57;;
2912;SDS011;1466;48.778;9.166;2023-06-24T05:42:31;16.07;;;8.47;;
2912;SDS011;1466;48.778;9.166;2023-06-24T05:44:57;17.63;;;8.67;;
2912;SDS011;1466;48.778;9.166;2023-06-24T05:47:23;17.17;;;8.80;;
2912;SDS011;1466;48.778;9.166;2023-06-24T05:49:49;18.43;;;9.20;;
2912;SDS011;1466;48.778;9.166;2023-06-24T05:52:14;15.20;;;8.23;;
2912;SDS011;1466;48.778;9.166;2023-06-24T05:54:40;23.40;;;10.23;;
2912;SDS011;1466;48.778;9.166;2023-06-24T05:57:05;16.47;;;9.00;;
2912;SDS011;1466;48.778;9.166;2023-06-24T05:59:31;20.00;;;8.97;;
2912;SDS011;1466;48.778;9.166;2023-06-24T06:02:00;22.93;;;9.67;;
2912;SDS011;1466;48.778;9.166;2023-06-24T06:04:27;19.57;;;9.17;;
2912;SDS011;1466;48.778;9.166;2023-06-24T06:06:53;19.90;;;8.73;;
2912;SDS011;1466;48.778;9.166;2023-06-24T06:09:18;16.47;;;8.30;;
2912;SDS011;1466;48.778;9.166;2023-06-24T06:11:45;18.43;;;8.87;;
2912;SDS011;1466;48.778;9.166;2023-06-24T06:14:10;12.87;;;7.90;;
2912;SDS011;1466;48.778;9.166;2023-06-24T06:16:36;32.37;;;11.23;;
2912;SDS011;1466;48.778;9.166;2023-06-24T06:19:01;19.10;;;9.00;;
2912;SDS011;1466;48.778;9.166;2023-06-24T06:21:28;19.60;;;9.20;;
2912;SDS011;1466;48.778;9.166;2023-06-24T06:23:53;14.30;;;8.33;;
2912;SDS011;1466;48.778;9.166;2023-06-24T06:26:19;22.00;;;9.50;;
2912;SDS011;1466;48.778;9.166;2023-06-24T06:28:44;15.13;;;8.00;;
2912;SDS011;1466;48.778;9.166;2023-06-24T06:31:12;21.07;;;9.10;;
2912;SDS011;1466;48.778;9.166;2023-06-24T06:33:38;21.57;;;9.03;;
2912;SDS011;1466;48.778;9.166;2023-06-24T06:36:03;17.90;;;8.80;;
2912;SDS011;1466;48.778;9.166;2023-06-24T06:38:29;31.83;;;9.40;;
2912;SDS011;1466;48.778;9.166;2023-06-24T06:40:55;15.37;;;7.90;;
2912;SDS011;1466;48.778;9.166;2023-06-24T06:43:20;30.80;;;10.97;;
2912;SDS011;1466;48.778;9.166;2023-06-24T06:45:46;17.43;;;7.90;;
2912;SDS011;1466;48.778;9.166;2023-06-24T06:48:12;14.40;;;7.77;;
2912;SDS011;1466;48.778;9.166;2023-06-24T06:50:37;13.90;;;7.47;;
2912;SDS011;1466;48.778;9.166;2023-06-24T06:53:03;14.00;;;7.40;;
2912;SDS011;1466;48.778;9.166;2023-06-24T06:55:28;21.43;;;8.57;;
2912;SDS011;1466;48.778;9.166;2023-06-24T06:57:54;20.73;;;9.37;;
2912;SDS011;1466;48.778;9.166;2023-06-24T07:00:20;27.17;;;9.27;;
2912;SDS011;1466;48.778;9.166;2023-06-24T07:02:46;15.23;;;7.23;;
2912;SDS011;1466;48.778;9.166;2023-06-24T07:05:11;29.43;;;10.40;;
2912;SDS011;1466;48.778;9.166;2023-06-24T07:07:40;16.67;;;8.27;;
2912;SDS011;1466;48.778;9.166;2023-06-24T07:10:06;14.70;;;7.33;;
2912;SDS011;1466;48.778;9.166;2023-06-24T07:12:32;25.33;;;9.10;;
2912;SDS011;1466;48.778;9.166;2023-06-24T07:14:58;18.90;;;8.30;;
2912;SDS011;1466;48.778;9.166;2023-06-24T07:17:23;25.57;;;10.00;;
2912;SDS011;1466;48.778;9.166;2023-06-24T07:19:49;18.03;;;8.23;;
2912;SDS011;1466;48.778;9.166;2023-06-24T07:22:15;18.10;;;8.00;;
2912;SDS011;1466;48.778;9.166;2023-06-24T07:24:41;22.13;;;7.37;;
2912;SDS011;1466;48.778;9.166;2023-06-24T07:27:06;18.77;;;7.93;;
2912;SDS011;1466;48.778;9.166;2023-06-24T07:29:32;19.13;;;8.37;;
2912;SDS011;1466;48.778;9.166;2023-06-24T07:31:58;22.33;;;8.60;;
2912;SDS011;1466;48.778;9.166;2023-06-24T07:34:24;26.47;;;9.60;;
2912;SDS011;1466;48.778;9.166;2023-06-24T07:36:49;25.23;;;9.63;;
2912;SDS011;1466;48.778;9.166;2023-06-24T07:39:15;15.73;;;7.60;;
2912;SDS011;1466;48.778;9.166;2023-06-24T07:41:41;15.27;;;7.60;;
2912;SDS011;1466;48.778;9.166;2023-06-24T07:44:07;16.93;;;7.53;;
2912;SDS011;1466;48.778;9.166;2023-06-24T07:46:33;26.37;;;9.57;;
2912;SDS011;1466;48.778;9.166;2023-06-24T07:48:59;16.03;;;8.20;;
2912;SDS011;1466;48.778;9.166;2023-06-24T07:51:25;20.37;;;7.00;;
2912;SDS011;1466;48.778;9.166;2023-06-24T07:53:50;13.53;;;7.60;;
2912;SDS011;1466;48.778;9.166;2023-06-24T07:56:16;12.63;;;7.43;;
2912;SDS011;1466;48.778;9.166;2023-06-24T07:58:42;18.83;;;9.10;;
2912;SDS011;1466;48.778;9.166;2023-06-24T08:01:08;10.30;;;7.10;;
2912;SDS011;1466;48.778;9.166;2023-06-24T08:03:33;17.57;;;8.10;;
2912;SDS011;1466;48.778;9.166;2023-06-24T08:06:01;19.67;;;8.40;;
2912;SDS011;1466;48.778;9.166;2023-06-24T08:08:27;16.10;;;8.20;;
2912;SDS011;1466;48.778;9.166;2023-06-24T08:10:53;20.00;;;8.73;;
2912;SDS011;1466;48.778;9.166;2023-06-24T08:13:18;16.00;;;8.17;;
2912;SDS011;1466;48.778;9.166;2023-06-24T08:15:44;15.10;;;7.50;;
2912;SDS011;1466;48.778;9.166;2023-06-24T08:18:09;16.30;;;8.17;;
2912;SDS011;1466;48.778;9.166;2023-06-24T08:20:35;17.40;;;8.53;;
2912;SDS011;1466;48.778;9.166;2023-06-24T08:23:01;23.27;;;7.23;;
2912;SDS011;1466;48.778;9.166;2023-06-24T08:25:27;19.47;;;8.90;;
2912;SDS011;1466;48.778;9.166;2023-06-24T08:27:52;27.63;;;10.37;;
2912;SDS011;1466;48.778;9.166;2023-06-24T08:30:18;28.03;;;10.13;;
2912;SDS011;1466;48.778;9.166;2023-06-24T08:32:43;15.73;;;8.07;;
2912;SDS011;1466;48.778;9.166;2023-06-24T08:35:09;30.20;;;10.97;;
2912;SDS011;1466;48.778;9.166;2023-06-24T08:37:35;28.40;;;9.83;;
2912;SDS011;1466;48.778;9.166;2023-06-24T08:40:02;13.47;;;7.43;;
2912;SDS011;1466;48.778;9.166;2023-06-24T08:42:29;21.47;;;8.70;;
2912;SDS011;1466;48.778;9.166;2023-06-24T08:44:55;13.83;;;8.30;;
2912;SDS011;1466;48.778;9.166;2023-06-24T08:47:21;17.67;;;8.40;;
2912;SDS011;1466;48.778;9.166;2023-06-24T08:49:50;22.33;;;9.10;;
2912;SDS011;1466;48.778;9.166;2023-06-24T08:52:21;14.90;;;8.20;;
2912;SDS011;1466;48.778;9.166;2023-06-24T08:54:50;20.43;;;8.57;;
2912;SDS011;1466;48.778;9.166;2023-06-24T08:57:16;13.63;;;7.53;;
2912;SDS011;1466;48.778;9.166;2023-06-24T08:59:43;12.33;;;7.87;;
2912;SDS011;1466;48.778;9.166;2023-06-24T09:02:09;13.43;;;7.40;;
2912;SDS011;1466;48.778;9.166;2023-06-24T09:04:36;20.73;;;8.67;;
2912;SDS011;1466;48.778;9.166;2023-06-24T09:07:01;20.40;;;8.73;;
2912;SDS011;1466;48.778;9.166;2023-06-24T09:09:28;27.97;;;9.40;;
2912;SDS011;1466;48.778;9.166;2023-06-24T09:11:57;16.47;;;7.77;;
2912;SDS011;1466;48.778;9.166;2023-06-24T09:14:24;15.87;;;7.67;;
2912;SDS011;1466;48.778;9.166;2023-06-24T09:16:54;13.03;;;7.30;;
2912;SDS011;1466;48.778;9.166;2023-06-24T09:19:34;19.70;;;8.87;;
2912;SDS011;1466;48.778;9.166;2023-06-24T09:22:02;15.90;;;8.40;;
2912;SDS011;1466;48.778;9.166;2023-06-24T09:24:36;10.97;;;7.07;;
2912;SDS011;1466;48.778;9.166;2023-06-24T09:27:02;8.30;;;5.87;;
2912;SDS011;1466;48.778;9.166;2023-06-24T09:29:31;20.77;;;8.70;;
2912;SDS011;1466;48.778;9.166;2023-06-24T09:31:58;14.53;;;6.77;;
2912;SDS011;1466;48.778;9.166;2023-06-24T09:34:25;18.30;;;8.03;;
2912;SDS011;1466;48.778;9.166;2023-06-24T09:36:53;19.43;;;9.13;;
2912;SDS011;1466;48.778;9.166;2023-06-24T09:39:20;10.33;;;7.00;;
2912;SDS011;1466;48.778;9.166;2023-06-24T09:41:50;25.17;;;10.00;;
2912;SDS011;1466;48.778;9.166;2023-06-24T09:44:16;15.90;;;9.10;;
2912;SDS011;1466;48.778;9.166;2023-06-24T09:46:44;15.03;;;8.33;;
2912;SDS011;1466;48.778;9.166;2023-06-24T09:49:10;16.53;;;9.17;;
2912;SDS011;1466;48.778;9.166;2023-06-24T09:51:40;26.50;;;9.97;;
2912;SDS011;1466;48.778;9.166;2023-06-24T09:54:09;15.33;;;7.17;;
2912;SDS011;1466;48.778;9.166;2023-06-24T09:56:36;18.20;;;8.10;;
2912;SDS011;1466;48.778;9.166;2023-06-24T09:59:04;16.37;;;7.87;;
2912;SDS011;1466;48.778;9.166;2023-06-24T10:01:35;14.90;;;7.70;;
2912;SDS011;1466;48.778;9.166;2023-06-24T10:04:03;13.00;;;6.87;;
2912;SDS011;1466;48.778;9.166;2023-06-24T10:06:31;15.03;;;7.67;;
2912;SDS011;1466;48.778;9.166;2023-06-24T10:08:58;10.27;;;6.90;;
2912;SDS011;1466;48.778;9.166;2023-06-24T10:11:24;13.53;;;8.17;;
2912;SDS011;1466;48.778;9.166;2023-06-24T10:13:50;15.83;;;8.23;;
2912;SDS011;1466;48.778;9.166;2023-06-24T10:16:16;17.67;;;8.53;;
2912;SDS011;1466;48.778;9.166;2023-06-24T10:18:43;11.47;;;7.80;;
2912;SDS011;1466;48.778;9.166;2023-06-24T10:21:10;14.43;;;8.30;;
2912;SDS011;1466;48.778;9.166;2023-06-24T10:23:39;16.27;;;8.00;;
2912;SDS011;1466;48.778;9.166;2023-06-24T10:26:29;18.00;;;8.53;;
2912;SDS011;1466;48.778;9.166;2023-06-24T10:47:34;15.40;;;7.93;;
2912;SDS011;1466;48.778;9.166;2023-06-24T10:50:07;14.27;;;7.83;;
2912;SDS011;1466;48.778;9.166;2023-06-24T10:52:38;14.37;;;7.70;;
2912;SDS011;1466;48.778;9.166;2023-06-24T10:55:05;10.20;;;7.10;;
2912;SDS011;1466;48.778;9.166;2023-06-24T10:57:32;17.07;;;7.03;;
2912;SDS011;1466;48.778;9.166;2023-06-24T10:59:58;17.27;;;8.07;;
2912;SDS011;1466;48.778;9.166;2023-06-24T11:02:24;20.33;;;8.53;;
2912;SDS011;1466;48.778;9.166;2023-06-24T11:05:01;10.60;;;7.30;;
2912;SDS011;1466;48.778;9.166;2023-06-24T11:07:29;21.30;;;8.77;;
2912;SDS011;1466;48.778;9.166;2023-06-24T11:10:06;11.93;;;7.13;;
2912;SDS011;1466;48.778;9.166;2023-06-24T11:12:35;12.80;;;7.73;;
2912;SDS011;1466;48.778;9.166;2023-06-24T11:15:12;26.63;;;9.83;;
2912;SDS011;1466;48.778;9.166;2023-06-24T11:17:39;13.80;;;7.80;;
2912;SDS011;1466;48.778;9.166;2023-06-24T11:20:12;11.87;;;7.70;;
2912;SDS011;1466;48.778;9.166;2023-06-24T11:22:42;17.73;;;8.57;;
2912;SDS011;1466;48.778;9.166;2023-06-24T11:25:21;12.87;;;7.30;;
2912;SDS011;1466;48.778;9.166;2023-06-24T11:27:47;29.37;;;10.97;;
2912;SDS011;1466;48.778;9.166;2023-06-24T11:30:15;12.93;;;7.40;;
2912;SDS011;1466;48.778;9.166;2023-06-24T11:32:42;15.93;;;7.50;;
2912;SDS011;1466;48.778;9.166;2023-06-24T11:35:09;17.37;;;7.80;;
2912;SDS011;1466;48.778;9.166;2023-06-24T11:37:43;14.30;;;8.70;;
2912;SDS011;1466;48.778;9.166;2023-06-24T11:40:10;10.60;;;7.20;;
2912;SDS011;1466;48.778;9.166;2023-06-24T11:42:38;16.07;;;7.97;;
2912;SDS011;1466;48.778;9.166;2023-06-24T11:45:09;21.03;;;8.73;;
2912;SDS011;1466;48.778;9.166;2023-06-24T11:47:36;18.97;;;8.30;;
2912;SDS011;1466;48.778;9.166;2023-06-24T11:50:04;21.93;;;8.90;;
2912;SDS011;1466;48.778;9.166;2023-06-24T11:55:19;12.53;;;7.43;;
2912;SDS011;1466;48.778;9.166;2023-06-24T12:00:24;15.03;;;8.53;;
2912;SDS011;1466;48.778;9.166;2023-06-24T12:02:55;29.03;;;10.30;;
2912;SDS011;1466;48.778;9.166;2023-06-24T12:07:57;22.13;;;8.37;;
2912;SDS011;1466;48.778;9.166;2023-06-24T12:10:27;22.00;;;9.13;;
2912;SDS011;1466;48.778;9.166;2023-06-24T12:12:54;12.87;;;7.87;;
2912;SDS011;1466;48.778;9.166;2023-06-24T12:15:20;16.30;;;7.93;;
2912;SDS011;1466;48.778;9.166;2023-06-24T12:17:46;17.70;;;8.57;;
2912;SDS011;1466;48.778;9.166;2023-06-24T12:20:13;18.33;;;8.37;;
2912;SDS011;1466;48.778;9.166;2023-06-24T12:22:39;17.27;;;8.27;;
2912;SDS011;1466;48.778;9.166;2023-06-24T12:25:05;15.67;;;8.33;;
2912;SDS011;1466;48.778;9.166;2023-06-24T12:27:31;18.57;;;8.50;;
2912;SDS011;1466;48.778;9.166;2023-06-24T12:29:56;17.63;;;8.83;;
2912;SDS011;1466;48.778;9.166;2023-06-24T12:32:22;22.13;;;10.80;;
2912;SDS011;1466;48.778;9.166;2023-06-24T12:34:47;12.20;;;7.40;;
2912;SDS011;1466;48.778;9.166;2023-06-24T12:37:13;26.40;;;10.30;;
2912;SDS011;1466;48.778;9.166;2023-06-24T12:39:38;14.53;;;7.90;;
2912;SDS011;1466;48.778;9.166;2023-06-24T12:42:04;14.90;;;8.57;;
2912;SDS011;1466;48.778;9.166;2023-06-24T12:44:31;27.27;;;10.57;;
2912;SDS011;1466;48.778;9.166;2023-06-24T12:46:56;15.27;;;8.10;;
2912;SDS011;1466;48.778;9.166;2023-06-24T12:49:22;11.30;;;8.07;;
2912;SDS011;1466;48.778;9.166;2023-06-24T12:51:48;14.07;;;8.33;;
2912;SDS011;1466;48.778;9.166;2023-06-24T12:54:13;14.27;;;8.03;;
2912;SDS011;1466;48.778;9.166;2023-06-24T12:56:39;14.03;;;7.97;;
2912;SDS011;1466;48.778;9.166;2023-06-24T12:59:04;13.40;;;7.90;;
2912;SDS011;1466;48.778;9.166;2023-06-24T13:01:30;12.30;;;6.83;;
2912;SDS011;1466;48.778;9.166;2023-06-24T13:03:56;17.43;;;8.80;;
2912;SDS011;1466;48.778;9.166;2023-06-24T13:06:22;10.20;;;7.60;;
2912;SDS011;1466;48.778;9.166;2023-06-24T13:08:47;10.70;;;6.97;;
2912;SDS011;1466;48.778;9.166;2023-06-24T13:11:13;43.37;;;13.40;;
2912;SDS011;1466;48.778;9.166;2023-06-24T13:13:38;48.93;;;13.50;;
2912;SDS011;1466;48.778;9.166;2023-06-24T13:16:04;35.93;;;11.90;;
2912;SDS011;1466;48.778;9.166;2023-06-24T13:18:30;46.57;;;13.97;;
2912;SDS011;1466;48.778;9.166;2023-06-24T13:20:55;44.17;;;13.40;;
2912;SDS011;1466;48.778;9.166;2023-06-24T13:23:21;40.30;;;12.70;;
2912;SDS011;1466;48.778;9.166;2023-06-24T13:25:47;42.77;;;12.43;;
2912;SDS011;1466;48.778;9.166;2023-06-24T13:28:12;46.33;;;13.20;;
2912;SDS011;1466;48.778;9.166;2023-06-24T13:30:38;42.97;;;12.90;;
2912;SDS011;1466;48.778;9.166;2023-06-24T13:33:04;35.00;;;11.40;;
2912;SDS011;1466;48.778;9.166;2023-06-24T13:35:29;39.63;;;12.77;;
2912;SDS011;1466;48.778;9.166;2023-06-24T13:37:55;54.20;;;15.50;;
2912;SDS011;1466;48.778;9.166;2023-06-24T13:40:20;47.80;;;13.90;;
2912;SDS011;1466;48.778;9.166;2023-06-24T13:42:46;45.30;;;13.33;;
2912;SDS011;1466;48.778;9.166;2023-06-24T13:45:11;36.67;;;12.23;;
2912;SDS011;1466;48.778;9.166;2023-06-24T13:47:37;37.70;;;11.87;;
2912;SDS011;1466;48.778;9.166;2023-06-24T13:50:03;46.10;;;13.70;;
2912;SDS011;1466;48.778;9.166;2023-06-24T13:52:29;46.77;;;14.23;;
2912;SDS011;1466;48.778;9.166;2023-06-24T13:54:54;44.17;;;13.30;;
2912;SDS011;1466;48.778;9.166;2023-06-24T13:57:20;53.47;;;14.53;;
2912;SDS011;1466;48.778;9.166;2023-06-24T13:59:46;44.93;;;12.67;;
2912;SDS011;1466;48.778;9.166;2023-06-24T14:02:12;51.30;;;16.53;;
2912;SDS011;1466;48.778;9.166;2023-06-24T14:04:38;41.70;;;13.97;;
2912;SDS011;1466;48.778;9.166;2023-06-24T14:07:06;42.77;;;13.70;;
2912;SDS011;1466;48.778;9.166;2023-06-24T14:09:32;42.33;;;12.30;;
2912;SDS011;1466;48.778;9.166;2023-06-24T14:11:58;43.00;;;13.20;;
2912;SDS011;1466;48.778;9.166;2023-06-24T14:14:24;45.37;;;13.63;;
2912;SDS011;1466;48.778;9.166;2023-06-24T14:16:50;43.03;;;14.23;;
2912;SDS011;1466;48.778;9.166;2023-06-24T14:19:16;40.80;;;13.13;;
2912;SDS011;1466;48.778;9.166;2023-06-24T14:21:41;50.73;;;14.87;;
2912;SDS011;1466;48.778;9.166;2023-06-24T14:24:07;49.37;;;13.63;;
2912;SDS011;1466;48.778;9.166;2023-06-24T14:26:35;48.43;;;13.63;;
2912;SDS011;1466;48.778;9.166;2023-06-24T14:29:01;46.67;;;13.67;;
2912;SDS011;1466;48.778;9.166;2023-06-24T14:31:27;46.10;;;15.03;;
2912;SDS011;1466;48.778;9.166;2023-06-24T14:33:52;59.63;;;16.33;;
2912;SDS011;1466;48.778;9.166;2023-06-24T14:36:18;16.37;;;8.27;;
2912;SDS011;1466;48.778;9.166;2023-06-24T14:38:43;22.50;;;9.30;;
2912;SDS011;1466;48.778;9.166;2023-06-24T14:41:10;18.57;;;8.33;;
2912;SDS011;1466;48.778;9.166;2023-06-24T14:43:35;18.10;;;8.50;;
2912;SDS011;1466;48.778;9.166;2023-06-24T14:46:01;10.70;;;7.00;;
2912;SDS011;1466;48.778;9.166;2023-06-24T14:48:27;19.20;;;7.70;;
2912;SDS011;1466;48.778;9.166;2023-06-24T14:50:52;21.73;;;9.07;;
2912;SDS011;1466;48.778;9.166;2023-06-24T14:53:18;16.63;;;8.63;;
2912;SDS011;1466;48.778;9.166;2023-06-24T14:55:44;21.87;;;9.87;;
2912;SDS011;1466;48.778;9.166;2023-06-24T14:58:10;22.50;;;9.90;;
2912;SDS011;1466;48.778;9.166;2023-06-24T15:00:36;15.43;;;8.07;;
2912;SDS011;1466;48.778;9.166;2023-06-24T15:03:01;14.07;;;7.47;;
2912;SDS011;1466;48.778;9.166;2023-06-24T15:05:27;13.33;;;8.10;;
2912;SDS011;1466;48.778;9.166;2023-06-24T15:07:52;32.77;;;12.17;;
2912;SDS011;1466;48.778;9.166;2023-06-24T15:10:18;18.67;;;9.17;;
2912;SDS011;1466;48.778;9.166;2023-06-24T15:12:44;16.33;;;8.43;;
2912;SDS011;1466;48.778;9.166;2023-06-24T15:15:09;15.23;;;7.77;;
2912;SDS011;1466;48.778;9.166;2023-06-24T15:17:35;16.50;;;8.33;;
2912;SDS011;1466;48.778;9.166;2023-06-24T15:20:05;16.13;;;8.43;;
2912;SDS011;1466;48.778;9.166;2023-06-24T15:22:32;20.80;;;9.50;;
2912;SDS011;1466;48.778;9.166;2023-06-24T15:24:58;27.53;;;10.83;;
2912;SDS011;1466;48.778;9.166;2023-06-24T15:27:24;19.97;;;8.70;;
2912;SDS011;1466;48.778;9.166;2023-06-24T15:29:49;15.47;;;8.23;;